createdAt,value
2023-01-26T00:00:06.422Z,60.80
2023-01-26T00:02:34.616Z,60.80
2023-01-26T00:05:03.123Z,60.96
2023-01-26T00:07:31.425Z,61.11
2023-01-26T00:09:59.766Z,61.17
2023-01-26T00:12:27.990Z,61.16
2023-01-26T00:14:56.319Z,61.12
2023-01-26T00:17:27.171Z,61.20
2023-01-26T00:19:57.261Z,61.11
2023-01-26T00:22:26.887Z,61.20
2023-01-26T00:24:56.300Z,61.17
2023-01-26T00:27:24.342Z,61.20
2023-01-26T00:29:52.851Z,61.17
2023-01-26T00:32:22.142Z,61.05
2023-01-26T00:34:50.366Z,60.84
2023-01-26T00:37:18.807Z,60.77
2023-01-26T00:39:47.176Z,60.81
2023-01-26T00:42:16.174Z,60.86
2023-01-26T00:44:44.687Z,60.63
2023-01-26T00:47:14.755Z,60.51
2023-01-26T00:49:43.260Z,60.51
2023-01-26T00:52:12.668Z,60.34
2023-01-26T00:54:40.835Z,60.25
2023-01-26T00:57:09.323Z,60.14
2023-01-26T00:59:37.623Z,60.31
2023-01-26T01:02:06.036Z,60.20
2023-01-26T01:04:35.875Z,60.26
2023-01-26T01:07:04.158Z,60.33
2023-01-26T01:09:34.075Z,60.36
2023-01-26T01:12:02.210Z,60.55
2023-01-26T01:14:30.948Z,60.48
2023-01-26T01:17:00.136Z,60.66
2023-01-26T01:19:28.720Z,60.64
2023-01-26T01:21:56.907Z,60.55
2023-01-26T01:24:25.820Z,60.70
2023-01-26T01:26:54.580Z,60.84
2023-01-26T01:29:23.159Z,60.85
2023-01-26T01:31:51.612Z,61.01
2023-01-26T01:34:19.964Z,61.15
2023-01-26T01:36:50.551Z,61.12
2023-01-26T01:39:18.932Z,61.15
2023-01-26T01:41:47.357Z,61.30
2023-01-26T01:44:20.639Z,61.34
2023-01-26T01:47:06.647Z,61.30
2023-01-26T01:49:38.248Z,61.26
2023-01-26T01:52:17.837Z,61.15
2023-01-26T01:55:07.579Z,60.92
2023-01-26T01:57:47.216Z,60.77
2023-01-26T02:00:19.100Z,60.57
2023-01-26T02:03:14.162Z,60.56
2023-01-26T02:05:55.252Z,60.38
2023-01-26T02:08:26.888Z,60.45
2023-01-26T02:10:56.214Z,60.24
2023-01-26T02:13:24.907Z,60.11
2023-01-26T02:18:12.254Z,60.64
2023-01-26T02:20:43.468Z,60.21
2023-01-26T02:23:49.984Z,60.14
2023-01-26T02:26:22.807Z,60.19
2023-01-26T02:28:56.197Z,60.17
2023-01-26T02:31:24.782Z,60.21
2023-01-26T02:33:55.237Z,60.29
2023-01-26T02:36:29.278Z,60.33
2023-01-26T02:39:16.747Z,60.41
2023-01-26T02:42:04.378Z,60.59
2023-01-26T02:44:33.064Z,60.74
2023-01-26T02:47:01.654Z,60.92
2023-01-26T02:49:47.697Z,60.81
2023-01-26T02:52:20.830Z,60.97
2023-01-26T02:55:13.176Z,60.93
2023-01-26T02:57:41.863Z,61.17
2023-01-26T03:00:12.734Z,61.36
2023-01-26T03:02:42.103Z,61.37
2023-01-26T03:05:10.388Z,61.32
2023-01-26T03:07:39.268Z,61.29
2023-01-26T03:10:09.065Z,61.21
2023-01-26T03:12:40.441Z,61.18
2023-01-26T03:15:28.235Z,61.17
2023-01-26T03:18:25.970Z,61.08
2023-01-26T03:21:13.218Z,60.93
2023-01-26T03:24:00.419Z,60.71
2023-01-26T03:26:47.792Z,60.71
2023-01-26T03:29:16.107Z,60.62
2023-01-26T03:31:44.753Z,60.54
2023-01-26T03:34:13.132Z,60.59
2023-01-26T03:36:41.918Z,60.59
2023-01-26T03:39:33.551Z,60.72
2023-01-26T03:42:20.872Z,60.89
2023-01-26T03:45:08.190Z,61.01
2023-01-26T03:47:58.094Z,61.12
2023-01-26T03:50:45.707Z,61.41
2023-01-26T03:53:43.167Z,61.54
2023-01-26T03:56:19.372Z,61.71
2023-01-26T03:58:49.756Z,61.90
2023-01-26T04:01:20.808Z,62.02
2023-01-26T04:04:09.140Z,62.03
2023-01-26T04:06:58.409Z,62.17
2023-01-26T04:09:26.888Z,62.26
2023-01-26T04:11:55.165Z,62.26
2023-01-26T04:14:49.863Z,62.48
2023-01-26T06:23:23.458Z,62.30
2023-01-26T06:25:53.269Z,61.68
2023-01-26T06:28:21.855Z,61.54
2023-01-26T06:30:50.224Z,61.51
2023-01-26T06:33:18.588Z,61.52
2023-01-26T06:35:47.400Z,61.52
2023-01-26T06:38:17.448Z,61.57
2023-01-26T06:40:46.391Z,61.53
2023-01-26T06:43:16.128Z,61.67
2023-01-26T06:45:44.704Z,61.77
2023-01-26T06:48:21.773Z,61.93
2023-01-26T06:50:50.864Z,62.00
2023-01-26T06:53:52.106Z,62.11
2023-01-26T06:56:30.850Z,62.20
2023-01-26T06:59:19.554Z,62.33
2023-01-26T07:02:06.873Z,62.54
2023-01-26T07:04:36.635Z,62.65
2023-01-26T07:07:06.954Z,62.43
2023-01-26T07:09:55.141Z,62.39
2023-01-26T07:12:23.703Z,62.47
2023-01-26T07:14:52.303Z,62.58
2023-01-26T07:17:22.287Z,62.64
2023-01-26T07:19:55.658Z,62.72
2023-01-26T07:22:26.805Z,62.68
2023-01-26T07:24:58.999Z,62.86
2023-01-26T07:27:27.508Z,63.06
2023-01-26T07:29:55.819Z,63.19
2023-01-26T07:32:24.168Z,63.34
2023-01-26T07:34:55.958Z,63.34
2023-01-26T07:37:31.333Z,63.49
2023-01-26T07:40:02.528Z,63.54
2023-01-26T07:42:33.941Z,63.71
2023-01-26T07:45:09.891Z,63.75
2023-01-26T07:47:40.739Z,63.74
2023-01-26T07:50:10.643Z,63.70
2023-01-26T07:52:39.118Z,63.57
2023-01-26T07:57:12.651Z,64.20
2023-01-26T07:59:43.628Z,63.75
2023-01-26T08:02:11.796Z,63.69
2023-01-26T08:04:44.889Z,63.87
2023-01-26T08:07:13.515Z,63.98
2023-01-26T08:09:41.761Z,63.89
2023-01-26T08:12:10.230Z,63.85
2023-01-26T08:14:47.067Z,63.85
2023-01-26T08:17:17.681Z,63.87
2023-01-26T08:19:49.394Z,63.88
2023-01-26T08:22:17.684Z,63.91
2023-01-26T08:24:46.053Z,63.98
2023-01-26T08:27:16.275Z,64.03
2023-01-26T08:29:44.607Z,64.14
2023-01-26T08:32:12.835Z,64.16
2023-01-26T08:34:41.480Z,64.33
2023-01-26T08:37:12.970Z,64.38
2023-01-26T08:39:41.250Z,64.26
2023-01-26T08:42:09.828Z,64.30
2023-01-26T08:44:38.316Z,64.39
2023-01-26T08:47:06.891Z,64.35
2023-01-26T08:49:38.241Z,64.23
2023-01-26T08:52:06.617Z,64.03
2023-01-26T08:54:37.351Z,63.79
2023-01-26T08:57:05.623Z,63.89
2023-01-26T08:59:33.797Z,63.90
2023-01-26T09:02:02.365Z,63.93
2023-01-26T09:04:30.514Z,63.99
2023-01-26T09:07:01.195Z,64.07
2023-01-26T09:09:29.479Z,64.13
2023-01-26T09:11:57.851Z,64.10
2023-01-26T09:14:28.865Z,64.20
2023-01-26T09:16:57.595Z,64.06
2023-01-26T09:19:26.154Z,64.11
2023-01-26T09:21:54.941Z,64.13
2023-01-26T09:24:23.968Z,64.19
2023-01-26T09:26:52.317Z,63.93
2023-01-26T09:29:29.805Z,63.90
2023-01-26T09:34:28.793Z,64.02
2023-01-26T09:36:57.299Z,63.50
2023-01-26T09:39:26.085Z,63.20
2023-01-26T09:42:17.812Z,62.74
2023-01-26T09:44:52.748Z,62.49
2023-01-26T09:47:31.685Z,62.34
2023-01-26T09:51:52.163Z,62.66
2023-01-26T09:54:31.822Z,61.79
2023-01-26T09:57:08.803Z,61.17
2023-01-26T10:00:09.857Z,61.21
2023-01-26T10:03:09.508Z,61.14
2023-01-26T10:05:38.255Z,61.02
2023-01-26T10:08:12.823Z,60.75
2023-01-26T10:10:46.887Z,60.27
2023-01-26T10:13:15.983Z,60.43
2023-01-26T10:15:56.739Z,60.86
2023-01-26T10:19:07.112Z,60.10
2023-01-26T10:21:38.816Z,59.06
2023-01-26T10:24:10.205Z,58.45
2023-01-26T10:26:38.799Z,57.66
2023-01-26T10:29:13.893Z,57.19
2023-01-26T10:31:42.065Z,57.36
2023-01-26T10:34:24.519Z,57.31
2023-01-26T10:37:26.616Z,57.07
2023-01-26T10:39:57.933Z,57.34
2023-01-26T10:42:28.261Z,57.77
2023-01-26T10:44:59.234Z,57.28
2023-01-26T10:47:28.806Z,56.79
2023-01-26T10:50:16.028Z,56.89
2023-01-26T10:53:02.244Z,56.97
2023-01-26T10:55:34.005Z,57.08
2023-01-26T10:58:02.188Z,57.04
2023-01-26T11:00:32.951Z,57.12
2023-01-26T11:03:18.267Z,57.20
2023-01-26T11:05:51.899Z,56.89
2023-01-26T11:08:34.920Z,56.34
2023-01-26T11:11:04.198Z,56.61
2023-01-26T11:13:32.591Z,56.57
2023-01-26T11:16:11.690Z,56.87
2023-01-26T11:19:00.846Z,56.98
2023-01-26T11:22:08.774Z,57.15
2023-01-26T11:24:44.347Z,57.28
2023-01-26T11:27:28.261Z,56.79
2023-01-26T11:30:06.423Z,56.63
2023-01-26T11:32:50.834Z,56.68
2023-01-26T11:35:57.195Z,56.72
2023-01-26T11:38:30.591Z,56.80
2023-01-26T11:40:58.995Z,56.79
2023-01-26T11:43:43.532Z,56.71
2023-01-26T11:46:33.722Z,56.68
2023-01-26T11:49:37.677Z,56.69
2023-01-26T11:52:19.984Z,56.52
2023-01-26T11:54:56.919Z,56.69
2023-01-26T11:57:34.377Z,56.76
2023-01-26T12:00:29.029Z,56.77
2023-01-26T12:03:16.247Z,56.93
2023-01-26T12:05:46.267Z,57.06
2023-01-26T12:08:17.690Z,56.95
2023-01-26T12:10:50.782Z,57.07
2023-01-26T12:13:39.239Z,57.02
2023-01-26T12:16:14.811Z,57.12
2023-01-26T12:18:58.737Z,57.06
2023-01-26T12:21:30.785Z,57.26
2023-01-26T12:24:02.417Z,57.16
2023-01-26T12:26:35.730Z,57.31
2023-01-26T12:29:18.552Z,57.40
2023-01-26T12:32:10.075Z,57.65
2023-01-26T12:34:38.867Z,57.73
2023-01-26T12:37:25.675Z,57.90
2023-01-26T12:40:16.070Z,57.81
2023-01-26T12:42:53.312Z,57.87
2023-01-26T12:45:36.386Z,57.75
2023-01-26T12:48:11.560Z,57.86
2023-01-26T12:50:55.271Z,57.67
2023-01-26T12:53:33.495Z,57.58
2023-01-26T12:56:19.662Z,57.60
2023-01-26T12:58:48.764Z,57.65
2023-01-26T13:01:22.122Z,57.83
2023-01-26T13:03:58.242Z,58.04
2023-01-26T13:06:27.245Z,58.28
2023-01-26T13:08:58.256Z,58.38
2023-01-26T13:11:39.525Z,58.41
2023-01-26T13:14:44.264Z,58.63
2023-01-26T13:17:15.300Z,58.42
2023-01-26T13:19:43.847Z,58.11
2023-01-26T13:22:24.373Z,57.98
2023-01-26T13:24:56.017Z,57.81
2023-01-26T13:27:39.738Z,57.96
2023-01-26T13:30:23.441Z,58.22
2023-01-26T13:33:05.517Z,58.54
2023-01-26T13:35:33.761Z,58.77
2023-01-26T13:38:02.340Z,58.83
2023-01-26T13:40:35.431Z,58.98
2023-01-26T13:43:11.855Z,59.28
2023-01-26T13:45:59.525Z,59.49
2023-01-26T13:48:27.800Z,59.70
2023-01-26T13:51:01.340Z,59.78
2023-01-26T13:53:43.917Z,59.89
2023-01-26T13:56:24.578Z,59.97
2023-01-26T14:01:31.794Z,60.61
2023-01-26T14:04:04.813Z,60.37
2023-01-26T14:06:36.321Z,60.28
2023-01-26T14:09:04.599Z,60.32
2023-01-26T14:11:33.590Z,60.29
2023-01-26T14:14:02.127Z,60.33
2023-01-26T14:16:37.723Z,60.03
2023-01-26T14:19:17.773Z,59.88
2023-01-26T14:22:00.236Z,59.97
2023-01-26T14:24:33.680Z,59.98
2023-01-26T14:27:06.667Z,60.14
2023-01-26T14:29:38.327Z,60.16
2023-01-26T14:32:12.649Z,60.23
2023-01-26T14:34:52.901Z,60.21
2023-01-26T14:37:22.823Z,60.21
2023-01-26T14:40:18.846Z,60.34
2023-01-26T14:42:50.833Z,60.40
2023-01-26T14:45:20.051Z,60.47
2023-01-26T14:47:48.380Z,60.53
2023-01-26T14:50:24.129Z,60.57
2023-01-26T14:52:52.421Z,60.76
2023-01-26T14:55:27.265Z,60.89
2023-01-26T14:57:56.333Z,61.13
2023-01-26T15:00:45.135Z,61.17
2023-01-26T15:03:22.238Z,61.18
2023-01-26T15:06:14.824Z,61.02
2023-01-26T15:08:51.805Z,60.83
2023-01-26T15:11:55.409Z,60.87
2023-01-26T15:14:45.818Z,60.72
2023-01-26T15:17:42.237Z,60.59
2023-01-26T15:20:22.653Z,60.33
2023-01-26T15:22:51.673Z,60.10
2023-01-26T15:25:22.289Z,60.00
2023-01-26T15:27:59.099Z,59.93
2023-01-26T15:30:34.981Z,60.01
2023-01-26T15:33:03.560Z,59.96
2023-01-26T15:35:33.450Z,60.02
2023-01-26T15:38:06.459Z,60.03
2023-01-26T15:40:35.124Z,60.11
2023-01-26T15:43:13.847Z,60.17
2023-01-26T15:45:55.845Z,60.35
2023-01-26T15:48:24.570Z,60.59
2023-01-26T15:50:53.232Z,60.68
2023-01-26T15:53:22.121Z,60.83
2023-01-26T15:55:56.290Z,60.88
2023-01-26T15:58:26.044Z,60.95
2023-01-26T17:47:19.515Z,62.25
2023-01-26T17:49:48.620Z,61.78
2023-01-26T17:52:16.987Z,61.60
2023-01-26T17:54:47.212Z,61.42
2023-01-26T17:57:15.697Z,61.45
2023-01-26T17:59:44.098Z,61.23
2023-01-26T18:02:12.726Z,60.89
2023-01-26T18:04:41.345Z,60.92
2023-01-26T18:07:10.538Z,60.90
2023-01-26T18:09:38.919Z,60.92
2023-01-26T18:12:07.403Z,60.77
2023-01-26T18:14:36.597Z,60.86
2023-01-26T18:17:04.981Z,61.01
2023-01-26T18:19:34.182Z,61.06
2023-01-26T18:22:02.443Z,61.24
2023-01-26T18:24:31.859Z,61.17
2023-01-26T18:27:00.536Z,61.30
2023-01-26T18:29:28.979Z,61.34
2023-01-26T18:31:57.397Z,61.38
2023-01-26T18:34:25.880Z,61.47
2023-01-26T18:36:54.363Z,61.49
2023-01-26T18:39:22.741Z,61.57
2023-01-26T18:41:51.630Z,61.42
2023-01-26T18:44:20.123Z,61.32
2023-01-26T18:46:48.597Z,61.15
2023-01-26T18:49:18.611Z,61.17
2023-01-26T18:51:49.366Z,61.12
2023-01-26T18:54:18.042Z,60.99
2023-01-26T18:56:48.988Z,60.98
2023-01-26T18:59:17.965Z,60.84
2023-01-26T19:01:47.364Z,60.83
2023-01-26T19:04:18.147Z,60.73
2023-01-26T19:06:47.707Z,60.70
2023-01-26T19:09:16.189Z,60.64
2023-01-26T19:11:45.489Z,60.61
2023-01-26T19:14:15.825Z,60.68
2023-01-26T19:16:47.768Z,60.76
2023-01-26T19:19:16.441Z,60.79
2023-01-26T19:21:44.748Z,60.85
2023-01-26T19:24:13.160Z,60.88
2023-01-26T19:26:41.704Z,61.05
2023-01-26T19:29:10.595Z,61.05
2023-01-26T19:31:38.895Z,61.26
2023-01-26T19:34:08.111Z,61.33
2023-01-26T19:36:36.456Z,61.29
2023-01-26T19:39:05.656Z,61.27
2023-01-26T19:41:34.532Z,61.28
2023-01-26T19:44:02.913Z,61.07
2023-01-26T22:27:12.430Z,62.34
2023-01-26T22:29:40.913Z,61.28
2023-01-26T22:32:09.292Z,61.18
2023-01-26T22:34:37.681Z,61.06
2023-01-26T22:37:06.150Z,61.03
2023-01-26T22:39:34.737Z,61.01
2023-01-26T22:42:03.520Z,61.20
2023-01-26T22:44:35.595Z,61.29
2023-01-26T22:47:05.012Z,61.24
2023-01-26T22:49:33.583Z,61.17
2023-01-26T22:52:01.850Z,61.29
2023-01-26T22:54:30.849Z,61.32
2023-01-26T22:56:59.228Z,61.42
2023-01-26T22:59:28.114Z,61.29
2023-01-26T23:01:57.376Z,61.13
2023-01-26T23:04:25.815Z,61.13
2023-01-26T23:06:54.074Z,61.03
2023-01-26T23:09:23.091Z,61.02
2023-01-26T23:12:03.021Z,60.87
2023-01-26T23:14:31.499Z,60.64
2023-01-26T23:17:00.191Z,60.26
2023-01-26T23:19:30.221Z,60.02
2023-01-26T23:21:58.476Z,59.94
2023-01-26T23:24:26.840Z,59.89
2023-01-26T23:26:55.444Z,59.84
2023-01-26T23:29:24.356Z,59.65
2023-01-26T23:31:52.756Z,59.56
2023-01-26T23:34:21.606Z,59.59
2023-01-26T23:36:50.897Z,59.60
2023-01-26T23:39:19.381Z,59.72
2023-01-26T23:41:47.671Z,59.76
2023-01-26T23:44:15.993Z,59.84
2023-01-26T23:46:44.454Z,59.99
2023-01-26T23:52:08.428Z,60.81
2023-01-26T23:54:37.094Z,60.56
2023-01-26T23:57:05.344Z,60.67
2023-01-26T23:59:34.364Z,60.93
